createdAt,value
2024-01-21T00:01:41.906Z,-6.16
2024-01-21T00:04:43.660Z,-6.32
2024-01-21T00:07:45.876Z,-6.34
2024-01-21T00:10:47.569Z,-6.34
2024-01-21T00:13:49.318Z,-6.35
2024-01-21T00:16:51.058Z,-6.29
2024-01-21T00:19:52.814Z,-6.41
2024-01-21T00:22:54.576Z,-6.64
2024-01-21T00:25:56.386Z,-6.71
2024-01-21T00:29:01.763Z,-6.75
2024-01-21T00:32:03.762Z,-6.86
2024-01-21T00:35:05.936Z,-6.79
2024-01-21T00:38:07.629Z,-6.82
2024-01-21T00:41:13.590Z,-6.90
2024-01-21T00:44:15.277Z,-6.83
2024-01-21T00:47:17.008Z,-6.87
2024-01-21T00:50:18.842Z,-6.90
2024-01-21T00:53:20.557Z,-7.00
2024-01-21T00:56:22.267Z,-7.06
2024-01-21T00:59:24.069Z,-7.07
2024-01-21T01:02:25.745Z,-7.09
2024-01-21T01:05:27.531Z,-7.14
2024-01-21T01:08:29.225Z,-7.25
2024-01-21T01:11:31.876Z,-7.33
2024-01-21T01:14:33.616Z,-7.30
2024-01-21T01:17:35.591Z,-7.30
2024-01-21T01:20:37.226Z,-7.33
2024-01-21T01:23:38.970Z,-7.39
2024-01-21T01:26:40.702Z,-7.36
2024-01-21T01:29:42.379Z,-7.33
2024-01-21T01:32:44.072Z,-7.26
2024-01-21T01:35:45.887Z,-7.29
2024-01-21T01:38:47.643Z,-7.28
2024-01-21T01:41:49.350Z,-7.28
2024-01-21T01:44:51.064Z,-7.22
2024-01-21T01:47:53.306Z,-7.32
2024-01-21T01:50:58.005Z,-7.33
2024-01-21T01:54:00.032Z,-7.26
2024-01-21T01:57:04.784Z,-7.39
2024-01-21T02:00:10.416Z,-7.39
2024-01-21T02:03:15.977Z,-7.40
2024-01-21T02:06:17.766Z,-7.39
2024-01-21T02:09:19.929Z,-7.34
2024-01-21T02:12:21.800Z,-7.37
2024-01-21T02:15:24.061Z,-7.45
2024-01-21T02:18:26.167Z,-7.58
2024-01-21T02:21:27.941Z,-7.61
2024-01-21T02:24:31.430Z,-7.58
2024-01-21T02:27:33.552Z,-7.58
2024-01-21T02:30:41.958Z,-7.64
2024-01-21T02:33:43.717Z,-7.72
2024-01-21T02:36:45.462Z,-7.85
2024-01-21T02:39:47.336Z,-8.08
2024-01-21T02:42:49.072Z,-8.10
2024-01-21T02:45:50.870Z,-8.17
2024-01-21T02:48:52.688Z,-8.30
2024-01-21T02:51:54.438Z,-8.47
2024-01-21T02:54:56.286Z,-8.61
2024-01-21T02:57:58.052Z,-8.59
2024-01-21T03:00:59.814Z,-8.57
2024-01-21T03:04:01.792Z,-8.61
2024-01-21T03:07:03.633Z,-8.55
2024-01-21T03:10:06.748Z,-8.60
2024-01-21T03:13:08.583Z,-8.70
2024-01-21T03:16:12.196Z,-8.86
2024-01-21T03:19:13.896Z,-8.99
2024-01-21T03:22:15.603Z,-9.07
2024-01-21T03:25:17.774Z,-9.08
2024-01-21T03:28:19.550Z,-9.12
2024-01-21T03:31:21.231Z,-9.05
2024-01-21T03:34:22.984Z,-9.08
2024-01-21T03:37:24.823Z,-9.14
2024-01-21T03:40:26.486Z,-9.08
2024-01-21T03:43:28.172Z,-9.23
2024-01-21T03:46:29.841Z,-9.21
2024-01-21T03:49:31.863Z,-9.23
2024-01-21T03:52:33.678Z,-9.30
2024-01-21T03:55:35.386Z,-9.30
2024-01-21T03:58:37.075Z,-9.30
2024-01-21T04:01:45.627Z,-9.29
2024-01-21T04:04:47.404Z,-9.13
2024-01-21T04:07:49.169Z,-9.02
2024-01-21T04:10:51.916Z,-9.01
2024-01-21T04:13:53.624Z,-8.98
2024-01-21T04:16:55.296Z,-9.16
2024-01-21T04:19:56.946Z,-9.33
2024-01-21T04:22:58.616Z,-9.37
2024-01-21T04:26:01.213Z,-9.34
2024-01-21T04:29:03.058Z,-9.34
2024-01-21T04:32:04.947Z,-9.35
2024-01-21T04:35:07.198Z,-9.50
2024-01-21T04:38:08.968Z,-9.60
2024-01-21T04:41:10.703Z,-9.64
2024-01-21T04:44:12.451Z,-9.64
2024-01-21T04:47:14.149Z,-9.69
2024-01-21T04:50:15.926Z,-9.62
2024-01-21T04:53:17.660Z,-9.66
2024-01-21T04:56:19.875Z,-9.68
2024-01-21T04:59:21.569Z,-9.60
2024-01-21T05:02:23.238Z,-9.53
2024-01-21T05:05:24.937Z,-9.55
2024-01-21T05:08:26.622Z,-9.61
2024-01-21T05:11:28.436Z,-9.63
2024-01-21T05:14:30.094Z,-9.73
2024-01-21T05:17:31.817Z,-9.84
2024-01-21T05:20:33.595Z,-9.89
2024-01-21T05:23:35.241Z,-9.90
2024-01-21T05:26:44.435Z,-9.95
2024-01-21T05:29:46.208Z,-9.92
2024-01-21T05:32:51.362Z,-9.90
2024-01-21T05:35:53.187Z,-9.85
2024-01-21T05:38:55.208Z,-9.89
2024-01-21T05:42:04.236Z,-9.89
2024-01-21T05:45:06.419Z,-9.93
2024-01-21T05:48:08.713Z,-9.92
2024-01-21T05:51:11.265Z,-9.91
2024-01-21T05:54:12.979Z,-9.96
2024-01-21T05:57:14.787Z,-9.92
2024-01-21T06:00:17.082Z,-9.88
2024-01-21T06:03:18.904Z,-9.92
2024-01-21T06:06:20.805Z,-9.93
2024-01-21T06:09:22.527Z,-9.88
2024-01-21T06:12:24.236Z,-9.79
2024-01-21T06:15:25.944Z,-9.83
2024-01-21T06:18:27.813Z,-9.83
2024-01-21T06:21:29.584Z,-9.86
2024-01-21T06:24:31.354Z,-9.76
2024-01-21T06:27:33.085Z,-9.74
2024-01-21T06:30:34.905Z,-9.79
2024-01-21T06:33:36.740Z,-9.76
2024-01-21T06:36:38.687Z,-9.80
2024-01-21T06:39:40.411Z,-9.77
2024-01-21T06:42:42.201Z,-9.80
2024-01-21T06:45:43.926Z,-9.85
2024-01-21T06:48:45.680Z,-9.83
2024-01-21T06:51:55.701Z,-9.80
2024-01-21T06:54:57.740Z,-9.84
2024-01-21T06:57:59.518Z,-9.80
2024-01-21T07:01:02.094Z,-9.82
2024-01-21T07:04:04.089Z,-9.86
2024-01-21T07:07:06.225Z,-9.77
2024-01-21T07:10:08.543Z,-9.67
2024-01-21T07:13:11.050Z,-9.64
2024-01-21T07:16:12.909Z,-9.60
2024-01-21T07:19:14.901Z,-9.59
2024-01-21T07:22:16.644Z,-9.47
2024-01-21T07:25:18.387Z,-9.29
2024-01-21T07:28:20.279Z,-9.10
2024-01-21T07:31:22.000Z,-8.98
2024-01-21T07:34:24.081Z,-8.80
2024-01-21T07:37:25.914Z,-8.76
2024-01-21T07:40:28.284Z,-8.80
2024-01-21T07:43:31.269Z,-8.56
2024-01-21T07:46:33.007Z,-8.25
2024-01-21T07:49:34.780Z,-7.88
2024-01-21T07:52:36.564Z,-7.60
2024-01-21T07:55:38.486Z,-7.62
2024-01-21T07:58:40.234Z,-7.58
2024-01-21T08:01:42.376Z,-7.77
2024-01-21T08:04:44.228Z,-7.72
2024-01-21T08:07:46.453Z,-7.58
2024-01-21T08:10:48.178Z,-7.45
2024-01-21T08:13:49.845Z,-7.26
2024-01-21T08:16:51.594Z,-7.15
2024-01-21T08:19:53.595Z,-7.02
2024-01-21T08:22:55.580Z,-6.87
2024-01-21T08:25:57.329Z,-6.86
2024-01-21T08:28:59.394Z,-6.80
2024-01-21T08:32:02.210Z,-6.81
2024-01-21T08:35:04.242Z,-6.80
2024-01-21T08:38:05.994Z,-6.62
2024-01-21T08:41:07.895Z,-6.39
2024-01-21T08:44:10.026Z,-6.21
2024-01-21T08:47:12.661Z,-6.08
2024-01-21T08:50:14.407Z,-5.92
2024-01-21T08:53:16.158Z,-5.73
2024-01-21T08:56:17.798Z,-5.64
2024-01-21T08:59:19.492Z,-5.43
2024-01-21T09:02:21.155Z,-5.27
2024-01-21T09:05:23.130Z,-5.09
2024-01-21T09:08:24.915Z,-4.92
2024-01-21T09:11:26.975Z,-4.70
2024-01-21T09:14:28.787Z,-4.72
2024-01-21T09:17:30.620Z,-4.58
2024-01-21T09:20:32.399Z,-4.49
2024-01-21T09:23:34.268Z,-4.29
2024-01-21T09:26:36.087Z,-4.08
2024-01-21T09:29:37.822Z,-3.95
2024-01-21T09:32:39.605Z,-3.74
2024-01-21T09:35:41.624Z,-3.55
2024-01-21T09:38:43.671Z,-3.41
2024-01-21T09:41:52.091Z,-3.36
2024-01-21T09:44:53.854Z,-3.25
2024-01-21T09:47:55.993Z,-3.01
2024-01-21T09:50:59.991Z,-2.85
2024-01-21T09:54:05.908Z,-2.77
2024-01-21T09:57:09.862Z,-2.61
2024-01-21T10:00:14.936Z,-2.44
2024-01-21T10:03:17.061Z,-2.30
2024-01-21T10:06:19.089Z,-2.08
2024-01-21T10:09:24.885Z,-2.14
2024-01-21T10:12:26.971Z,-2.03
2024-01-21T10:15:31.267Z,-1.96
2024-01-21T10:18:33.744Z,-1.91
2024-01-21T10:21:35.597Z,-1.78
2024-01-21T10:24:57.841Z,-1.65
2024-01-21T10:27:59.595Z,-1.56
2024-01-21T10:31:01.722Z,-1.47
2024-01-21T10:34:04.325Z,-1.10
2024-01-21T10:37:06.344Z,-0.79
2024-01-21T10:40:10.565Z,-0.56
2024-01-21T10:43:15.950Z,-0.40
2024-01-21T10:46:19.571Z,-0.40
2024-01-21T10:49:21.842Z,-0.21
2024-01-21T10:52:24.610Z,-0.24
2024-01-21T10:55:27.099Z,-0.14
2024-01-21T10:58:29.650Z,0.11
2024-01-21T11:01:32.523Z,0.20
2024-01-21T11:04:35.939Z,0.33
2024-01-21T11:07:39.131Z,0.43
2024-01-21T11:10:40.839Z,0.38
2024-01-21T11:13:46.964Z,0.20
2024-01-21T11:16:48.756Z,0.25
2024-01-21T11:19:50.694Z,0.41
2024-01-21T11:22:52.636Z,0.49
2024-01-21T11:25:55.072Z,0.60
2024-01-21T11:29:01.816Z,0.74
2024-01-21T11:32:04.289Z,0.81
2024-01-21T11:35:10.916Z,0.82
2024-01-21T11:38:12.710Z,1.02
2024-01-21T11:41:15.673Z,1.10
2024-01-21T11:44:30.211Z,1.24
2024-01-21T11:47:33.507Z,1.30
2024-01-21T11:50:36.220Z,1.45
2024-01-21T11:53:37.887Z,1.57
2024-01-21T11:56:45.389Z,1.75
2024-01-21T11:59:48.126Z,2.05
2024-01-21T12:02:49.783Z,2.02
2024-01-21T12:05:51.673Z,1.86
2024-01-21T12:08:56.984Z,2.08
2024-01-21T12:12:00.403Z,1.99
2024-01-21T12:15:03.655Z,1.85
2024-01-21T12:18:06.069Z,1.56
2024-01-21T12:21:08.123Z,1.64
2024-01-21T12:24:10.126Z,1.68
2024-01-21T12:27:15.348Z,1.85
2024-01-21T12:30:17.888Z,2.12
2024-01-21T12:33:19.804Z,2.31
2024-01-21T12:36:21.670Z,1.98
2024-01-21T12:39:24.758Z,1.87
2024-01-21T12:42:28.299Z,1.58
2024-01-21T12:45:30.004Z,1.56
2024-01-21T12:48:31.876Z,1.48
2024-01-21T12:51:33.743Z,1.43
2024-01-21T12:54:36.118Z,1.39
2024-01-21T12:57:38.052Z,1.36
2024-01-21T13:00:43.124Z,1.37
2024-01-21T13:03:45.166Z,1.52
2024-01-21T13:06:47.530Z,1.61
2024-01-21T13:09:50.057Z,1.66
2024-01-21T13:12:52.014Z,1.71
2024-01-21T13:15:53.737Z,1.79
2024-01-21T13:18:55.485Z,1.86
2024-01-21T13:21:57.359Z,1.93
2024-01-21T13:24:59.826Z,1.90
2024-01-21T13:28:15.129Z,1.97
2024-01-21T13:31:16.906Z,2.07
2024-01-21T13:34:18.645Z,2.10
2024-01-21T13:37:26.728Z,2.23
2024-01-21T13:40:29.450Z,2.30
2024-01-21T13:43:32.112Z,2.34
2024-01-21T13:46:34.801Z,2.33
2024-01-21T13:49:37.101Z,2.30
2024-01-21T13:52:39.342Z,2.39
2024-01-21T13:55:41.164Z,2.32
2024-01-21T13:58:42.848Z,2.33
2024-01-21T14:01:53.862Z,2.24
2024-01-21T14:04:59.520Z,2.32
2024-01-21T14:08:01.221Z,2.38
2024-01-21T14:11:03.111Z,2.45
2024-01-21T14:14:04.999Z,2.44
2024-01-21T14:17:06.892Z,2.56
2024-01-21T14:20:12.024Z,2.58
2024-01-21T14:23:13.959Z,2.63
2024-01-21T14:26:16.707Z,2.74
2024-01-21T14:29:26.268Z,2.80
2024-01-21T14:32:28.165Z,2.86
2024-01-21T14:35:31.112Z,2.88
2024-01-21T14:38:32.836Z,2.90
2024-01-21T14:41:34.910Z,2.88
2024-01-21T14:44:36.654Z,2.85
2024-01-21T14:47:38.620Z,2.88
2024-01-21T14:50:40.526Z,2.91
2024-01-21T14:53:42.374Z,3.00
2024-01-21T14:56:44.183Z,3.03
2024-01-21T14:59:45.989Z,3.02
2024-01-21T15:02:47.836Z,2.94
2024-01-21T15:05:49.607Z,2.83
2024-01-21T15:08:51.306Z,2.78
2024-01-21T15:11:53.086Z,2.73
2024-01-21T15:15:04.698Z,2.54
2024-01-21T15:18:12.402Z,2.56
2024-01-21T15:21:19.424Z,2.55
2024-01-21T15:24:21.266Z,2.51
2024-01-21T15:27:24.440Z,2.32
2024-01-21T15:30:26.385Z,2.35
2024-01-21T15:33:32.456Z,2.35
2024-01-21T15:36:36.396Z,2.27
2024-01-21T15:39:38.137Z,2.22
2024-01-21T15:42:41.352Z,2.14
2024-01-21T15:45:43.250Z,1.90
2024-01-21T15:48:45.167Z,1.78
2024-01-21T15:51:49.064Z,1.63
2024-01-21T15:54:52.389Z,1.26
2024-01-21T15:57:54.230Z,0.95
2024-01-21T16:00:56.126Z,0.82
2024-01-21T16:03:58.720Z,0.70
2024-01-21T16:07:00.622Z,0.83
2024-01-21T16:10:02.540Z,0.90
2024-01-21T16:13:04.952Z,0.74
2024-01-21T16:16:07.092Z,0.56
2024-01-21T16:19:09.048Z,0.50
2024-01-21T16:22:11.331Z,0.40
2024-01-21T16:25:13.276Z,0.28
2024-01-21T16:28:15.254Z,0.17
2024-01-21T16:31:17.793Z,0.05
2024-01-21T16:34:19.634Z,0.02
2024-01-21T16:37:21.414Z,-0.02
2024-01-21T16:40:23.466Z,-0.32
2024-01-21T16:43:25.383Z,-0.52
2024-01-21T16:46:27.166Z,-0.56
2024-01-21T16:49:28.954Z,-0.71
2024-01-21T16:52:33.954Z,-0.88
2024-01-21T16:55:35.736Z,-1.03
2024-01-21T16:58:37.871Z,-1.06
2024-01-21T17:01:45.525Z,-0.98
2024-01-21T17:04:47.973Z,-0.87
2024-01-21T17:07:49.889Z,-0.77
2024-01-21T17:10:57.599Z,-0.83
2024-01-21T17:13:59.334Z,-0.77
2024-01-21T17:17:01.677Z,-0.72
2024-01-21T17:20:06.118Z,-0.68
2024-01-21T17:23:08.994Z,-0.70
2024-01-21T17:26:13.200Z,-0.67
2024-01-21T17:29:14.958Z,-0.95
2024-01-21T17:32:16.658Z,-0.63
2024-01-21T17:35:18.514Z,-0.64
2024-01-21T17:38:20.193Z,-0.83
2024-01-21T17:41:23.287Z,-1.00
2024-01-21T17:44:24.988Z,-1.04
2024-01-21T17:47:26.977Z,-1.05
2024-01-21T17:50:28.884Z,-1.13
2024-01-21T17:53:30.622Z,-1.15
2024-01-21T17:56:32.688Z,-1.24
2024-01-21T17:59:34.601Z,-1.40
2024-01-21T18:02:36.452Z,-1.43
2024-01-21T18:05:38.384Z,-1.39
2024-01-21T18:08:40.247Z,-1.44
2024-01-21T18:11:42.098Z,-1.55
2024-01-21T18:14:43.812Z,-1.60
2024-01-21T18:17:46.124Z,-1.62
2024-01-21T18:20:48.280Z,-1.61
2024-01-21T18:23:50.764Z,-1.60
2024-01-21T18:26:52.618Z,-1.66
2024-01-21T18:29:54.532Z,-1.67
2024-01-21T18:32:56.461Z,-1.73
2024-01-21T18:35:58.246Z,-1.84
2024-01-21T18:39:00.046Z,-1.70
2024-01-21T18:42:02.043Z,-1.71
2024-01-21T18:45:04.073Z,-1.68
2024-01-21T18:48:06.703Z,-1.71
2024-01-21T18:51:08.937Z,-1.74
2024-01-21T18:54:11.701Z,-1.81
2024-01-21T18:57:14.958Z,-1.79
2024-01-21T19:00:17.065Z,-1.84
2024-01-21T19:03:19.076Z,-1.80
2024-01-21T19:06:21.650Z,-1.80
2024-01-21T19:09:24.482Z,-1.76
2024-01-21T19:12:27.344Z,-1.79
2024-01-21T19:15:30.905Z,-1.71
2024-01-21T19:18:32.727Z,-1.76
2024-01-21T19:21:35.048Z,-1.72
2024-01-21T19:24:37.523Z,-1.67
2024-01-21T19:27:39.249Z,-1.65
2024-01-21T19:30:40.931Z,-1.71
2024-01-21T19:33:42.796Z,-1.76
2024-01-21T19:36:45.642Z,-1.78
2024-01-21T19:39:50.836Z,-1.81
2024-01-21T19:42:52.518Z,-1.82
2024-01-21T19:45:54.190Z,-1.89
2024-01-21T19:48:56.975Z,-1.93
2024-01-21T19:52:00.205Z,-1.91
2024-01-21T19:55:02.263Z,-1.98
2024-01-21T19:58:06.035Z,-1.96
2024-01-21T20:01:07.850Z,-2.05
2024-01-21T20:04:14.499Z,-2.21
2024-01-21T20:07:20.287Z,-2.23
2024-01-21T20:10:23.095Z,-2.19
2024-01-21T20:13:25.056Z,-2.24
2024-01-21T20:16:26.967Z,-2.23
2024-01-21T20:19:28.674Z,-2.32
2024-01-21T20:22:30.376Z,-2.31
2024-01-21T20:25:33.503Z,-2.46
2024-01-21T20:28:35.396Z,-2.47
2024-01-21T20:31:37.139Z,-2.44
2024-01-21T20:34:39.870Z,-2.57
2024-01-21T20:37:41.956Z,-2.58
2024-01-21T20:40:43.704Z,-2.44
2024-01-21T20:43:48.328Z,-2.46
2024-01-21T20:46:50.464Z,-2.52
2024-01-21T20:49:52.254Z,-2.55
2024-01-21T20:52:56.330Z,-2.68
2024-01-21T20:55:58.189Z,-2.71
2024-01-21T20:59:00.134Z,-2.71
2024-01-21T21:02:01.899Z,-2.72
2024-01-21T21:05:03.650Z,-2.61
2024-01-21T21:08:06.601Z,-2.69
2024-01-21T21:11:08.357Z,-2.75
2024-01-21T21:14:10.103Z,-2.74
2024-01-21T21:17:11.930Z,-2.79
2024-01-21T21:20:13.688Z,-2.77
2024-01-21T21:23:15.525Z,-2.70
2024-01-21T21:26:17.205Z,-2.69
2024-01-21T21:29:18.908Z,-2.77
2024-01-21T21:32:20.604Z,-2.82
2024-01-21T21:35:22.370Z,-2.82
2024-01-21T21:38:24.119Z,-2.81
2024-01-21T21:41:25.833Z,-2.82
2024-01-21T21:44:27.781Z,-2.89
2024-01-21T21:47:29.529Z,-2.96
2024-01-21T21:50:31.859Z,-2.92
2024-01-21T21:53:33.943Z,-2.87
2024-01-21T21:56:36.023Z,-2.95
2024-01-21T21:59:37.829Z,-3.01
2024-01-21T22:02:40.108Z,-2.82
2024-01-21T22:05:41.934Z,-2.77
2024-01-21T22:08:44.106Z,-2.77
2024-01-21T22:11:45.908Z,-2.81
2024-01-21T22:14:47.775Z,-2.89
2024-01-21T22:17:49.764Z,-3.01
2024-01-21T22:20:51.651Z,-2.97
2024-01-21T22:23:53.352Z,-2.91
2024-01-21T22:26:55.214Z,-2.84
2024-01-21T22:29:57.013Z,-2.89
2024-01-21T22:32:59.519Z,-2.85
2024-01-21T22:36:01.690Z,-3.04
2024-01-21T22:39:04.694Z,-3.12
2024-01-21T22:42:06.567Z,-3.10
2024-01-21T22:45:09.894Z,-3.16
2024-01-21T22:48:11.835Z,-3.27
2024-01-21T22:51:13.856Z,-3.33
2024-01-21T22:54:15.654Z,-3.38
2024-01-21T22:57:17.369Z,-3.47
2024-01-21T23:00:22.708Z,-3.47
2024-01-21T23:03:24.618Z,-3.52
2024-01-21T23:06:26.318Z,-3.44
2024-01-21T23:09:28.011Z,-3.42
2024-01-21T23:12:29.726Z,-3.48
2024-01-21T23:15:31.408Z,-3.39
2024-01-21T23:18:33.195Z,-3.23
2024-01-21T23:21:35.020Z,-3.18
2024-01-21T23:24:36.690Z,-3.15
2024-01-21T23:27:38.472Z,-3.15
2024-01-21T23:30:40.161Z,-3.08
2024-01-21T23:33:41.930Z,-3.10
2024-01-21T23:36:43.660Z,-3.10
2024-01-21T23:39:45.363Z,-3.04
2024-01-21T23:42:47.189Z,-3.05
2024-01-21T23:45:48.929Z,-3.08
2024-01-21T23:48:50.721Z,-3.10
2024-01-21T23:51:52.630Z,-3.11
2024-01-21T23:54:54.370Z,-3.15
2024-01-21T23:57:57.048Z,-3.18
